x

Corpus Christi, Tx - 60nm Sse Of Corpus Christi, Tx (42020) Wave Buoy

11:50am - Thu 8th Dec 2016 All times are CST. -6 hours from GMT.

  • Sig Wave height 12.5ft
  • Swell Direction
  • Peak Period 9s
  • Average Period 7s
  • Wind
    36mph, 45mph gusts
  • Sea Temp 76°f
  • Air Temp 65°f
  • Sea Pressure 1022mb
  • Corpus Christi, Tx - 60nm Sse Of Corpus Christi, Tx
  • Corpus Christi, Tx - 60nm Sse Of Corpus Christi, Tx

More Historic Weather Station data

Upgrade to MSW Pro to gain access to the past 30 days of data for over 8000 Wavebouys and Weather Stations around the globe.

Join Pro

Comparision Forecast

View Surf forecast
   
Thu 12/08 11:50am 12.5ft 9s 7s 36 45 mph 1022mb 76f 65f
10:50am 14ft 8s 7s 36 45 mph 1022.1mb 76f 66f
9:50am 13ft 8s 7s 34 43 mph 1021.8mb 76f 66f
8:50am 12ft 8s 6s 36 43 mph 1020.3mb 76f 67f
7:50am 12.5ft 8s 6s 36 43 mph 1019.5mb 76f 67f
6:50am 11ft 7s 6s 34 43 mph 1018.3mb 75f 67f
5:50am 9ft 7s 6s 34 40 mph 1017.3mb 75f 67f
4:50am 8ft 7s 5s 31 36 mph 1016.8mb 75f 68f
3:50am 6ft 6s 5s 29 34 mph 1016.7mb 75f 68f
2:50am 5.5ft 5s 5s 27 31 mph 1016.2mb 75f 69f
1:50am 3.5ft 5s 4s 16 25 mph 1015.8mb 75f 73f
Wed 12/07 9:50pm 3ft 8s 4s 9 13 mph 1016.1mb 75f 76f
8:50pm 2.5ft 5s 4s 11 13 mph 1015.6mb 75f 76f
7:50pm 2.5ft 8s 4s 11 13 mph 1015mb 75f 76f
6:50pm 2.5ft 8s 5s 9 11 mph 1014.5mb 75f 76f
5:50pm 2.5ft 5s 4s 7
mph
1014.2mb 76f 76f
4:50pm 2.5ft 8s 4s 9 11 mph 1013.4mb 76f 76f
3:50pm 2.5ft 8s 4s 11 13 mph 1012.9mb 76f 77f
2:50pm 2.5ft 8s 4s 11 13 mph 1012.9mb 76f 76f
12:50pm 2.5ft 7s 5s 9 11 mph 1014.4mb 76f 76f
10:50am 2.5ft 5s 5s 13 16 mph 1015.8mb 77f 76f
9:50am 3ft 6s 5s 11 13 mph 1016mb 76f 76f
8:50am 3ft 6s 5s 13 16 mph 1015.6mb 76f 74f
7:50am 3ft 6s 5s 13
mph
1015.3mb 75f 73f
6:50am 3.5ft 6s 5s 13 16 mph 1014.9mb 75f 72f
5:50am 3.5ft 6s 5s 13 16 mph 1014.6mb 76f 71f
4:50am 3.5ft 6s 5s 13 16 mph 1014.3mb 76f 71f
3:50am 4ft 5s 5s 13 18 mph 1014.5mb 76f 70f
2:50am 3.5ft 5s 5s 13 16 mph 1014.5mb 76f 69f
1:50am 3.5ft 4s 4s 16 20 mph 1014.6mb 76f 69f
12:50am 3ft 4s 4s 18 20 mph 1014.7mb 76f 69f
Tue 12/06 11:50pm 1.6ft 8s 4s 18 22 mph 1014.7mb 76f 71f
10:50pm 1.6ft 8s 5s 2 4 mph 1015mb 76f 73f
9:50pm 1.6ft 8s 5s 4 7 mph 1014.8mb 77f 73f
8:50pm 1.6ft 8s 5s 7 9 mph 1014.5mb 77f 73f
7:50pm 1.6ft 8s 4s 7 9 mph 1014.1mb 77f 73f
6:50pm 2ft 8s 4s 4 7 mph 1013.6mb 76f 73f
5:50pm 2.5ft 4s 4s 4 7 mph 1013.1mb 77f 73f
4:50pm 2.5ft 4s 4s 7 9 mph 1012.5mb 77f 73f
3:50pm 3ft 4s 4s 11 13 mph 1012mb 77f 73f
2:50pm 3ft 4s 4s 13 18 mph 1011.8mb 77f 72f
1:50pm 3.5ft 5s 4s 18 20 mph 1012mb 77f 72f
12:50pm 3.5ft 4s 4s 18 22 mph 1012.7mb 77f 72f
11:50am 3.5ft 4s 4s 20 25 mph 1013.2mb 77f 72f
10:50am 2.5ft 4s 4s 20 25 mph 1014.1mb 76f 71f
9:50am 2.5ft 4s 4s 18 22 mph 1014mb 76f 71f
8:50am 2ft 4s 4s 18 22 mph 1013.3mb 76f 70f
7:50am 2ft 4s 4s 13 18 mph 1012.7mb 76f 70f
6:50am 2.5ft 4s 4s 13 16 mph 1011.9mb 76f 70f
5:50am 2.5ft 4s 4s 13 16 mph 1011.5mb 76f 69f
4:50am 2.5ft 4s 4s 16 20 mph 1011mb 76f 68f
3:50am 2.5ft 7s 4s 16 20 mph 1011.2mb 76f 67f
2:50am 2.5ft 4s 4s 16 22 mph 1011mb 76f 67f
1:50am 2.5ft 7s 4s 16 18 mph 1010.6mb 76f 66f
12:50am 2.5ft 7s 4s 16 20 mph 1010.3mb 76f 66f
Mon 12/05 11:50pm 2.5ft 8s 5s 13 18 mph 1010.6mb 76f 66f
10:50pm 3ft 7s 5s 13 16 mph 1010.5mb 76f 66f
9:50pm 3.5ft 8s 5s 11 13 mph 1010.2mb 76f 65f
8:50pm 3.5ft 8s 5s 9 11 mph 1010.2mb 76f 65f
7:50pm 4ft 7s 5s 13 16 mph 1010.1mb 76f 64f
6:50pm 4.5ft 7s 5s 16 20 mph 1009.5mb 76f 64f
5:50pm 4.5ft 8s 5s 13 18 mph 1008.9mb 76f 63f
4:50pm 5ft 7s 5s 13 18 mph 1008.6mb 76f 62f
3:50pm 5.5ft 7s 5s 18 22 mph 1008.5mb 76f 61f
2:50pm 6ft 8s 5s 20 22 mph 1008.6mb 76f 60f
1:50pm 6.5ft 8s 6s 22 27 mph 1008.7mb 76f 60f
12:50pm 6ft 8s 6s 18 25 mph 1009.4mb 76f 60f
11:50am 6ft 7s 5s 16 20 mph 1010.5mb 76f 59f
10:50am 6ft 8s 5s 18 25 mph 1011mb 76f 59f
9:50am 6.5ft 8s 6s 18 22 mph 1010.9mb 76f 58f
8:50am 7.5ft 8s 6s 20 27 mph 1010.6mb 76f 60f
7:50am 8ft 8s 6s 20 25 mph 1009.7mb 76f 60f
6:50am 7.5ft 8s 5s 22 29 mph 1009.1mb 76f 60f
5:50am 9ft 8s 6s 25 29 mph 1008.8mb 76f 62f
4:50am 8ft 7s 6s 27 31 mph 1008.3mb 76f 63f
3:50am 8ft 8s 6s 25 29 mph 1008.4mb 76f 62f
2:50am 8ft 8s 6s 25 31 mph 1007.9mb 76f 65f
1:50am 8.5ft 7s 6s 27 31 mph 1007.7mb 76f 65f
12:50am 8ft 7s 6s 29 38 mph 1007mb 76f 67f
Sun 12/04 11:50pm 7ft 8s 5s 27 31 mph 1008.6mb 76f 68f
10:50pm 7ft 7s 6s 22 25 mph 1009.4mb 76f 70f
9:50pm 7ft 8s 5s 18 25 mph 1009.8mb 76f 74f
8:50pm 8ft 8s 6s 20 25 mph 1009.8mb 76f 74f
7:50pm 8ft 8s 6s 25 27 mph 1009.5mb 76f 73f
6:50pm 8ft 7s 6s 22 29 mph 1010mb 76f 73f